Time;durP1;ratioP1;P1;durP2;ratioP2;P2;SDS_P1;SDS_P2;PMS_P1;PMS_P2;Temp;Humidity;BMP_temperature;BMP_pressure;BME280_temperature;BME280_humidity;BME280_pressure;Samples;Min_cycle;Max_cycle;Signal;HPM_P1;HPM_P2
2023/06/01 00:00:23;;;;;;;3.53;3.33;;;17.60;53.80;;;;;;6313031;27;20241;-86
2023/06/01 00:03:30;;;;;;;4.00;3.43;;;17.60;54.00;;;;;;6301583;27;20244;-83
2023/06/01 00:06:34;;;;;;;3.97;2.90;;;17.50;54.10;;;;;;6308095;27;20374;-85
2023/06/01 00:09:37;;;;;;;3.00;2.87;;;17.50;54.40;;;;;;6303974;27;20236;-86
2023/06/01 00:12:42;;;;;;;3.33;3.13;;;17.50;54.40;;;;;;6324199;27;20242;-84
2023/06/01 00:15:45;;;;;;;2.90;2.77;;;17.40;54.80;;;;;;6317142;27;20782;-85
2023/06/01 00:18:52;;;;;;;3.73;3.30;;;17.40;54.70;;;;;;6314251;27;20265;-84
2023/06/01 00:21:57;;;;;;;3.37;3.10;;;17.30;55.00;;;;;;6308968;27;20241;-86
2023/06/01 00:25:00;;;;;;;3.40;3.20;;;17.20;55.00;;;;;;6305371;28;20241;-85
2023/06/01 00:28:04;;;;;;;3.40;3.10;;;17.20;55.30;;;;;;6310818;28;20236;-85
2023/06/01 00:31:07;;;;;;;4.33;3.27;;;17.20;55.40;;;;;;6309654;28;20877;-84
2023/06/01 00:34:12;;;;;;;2.83;2.70;;;17.10;55.70;;;;;;6323924;27;20236;-85
2023/06/01 00:37:15;;;;;;;2.93;2.83;;;17.00;55.80;;;;;;6332240;27;20813;-86
2023/06/01 00:40:19;;;;;;;3.00;2.90;;;17.00;55.80;;;;;;6311594;27;20320;-82
2023/06/01 00:43:22;;;;;;;3.13;3.00;;;17.00;55.90;;;;;;6317320;27;20260;-83
2023/06/01 00:46:27;;;;;;;3.60;3.30;;;16.90;56.40;;;;;;6309647;27;20290;-86
2023/06/01 00:49:35;;;;;;;3.37;3.17;;;16.80;56.70;;;;;;6303025;28;20232;-85
2023/06/01 00:52:39;;;;;;;3.13;2.90;;;16.80;56.80;;;;;;6310667;27;20956;-85
2023/06/01 00:55:43;;;;;;;3.10;3.00;;;16.70;57.10;;;;;;6299535;27;20236;-85
2023/06/01 00:58:49;;;;;;;3.07;2.87;;;16.70;57.20;;;;;;6294383;27;20229;-87
2023/06/01 01:01:54;;;;;;;3.50;3.30;;;16.60;57.70;;;;;;6311815;27;20835;-85
2023/06/01 01:04:59;;;;;;;3.47;3.13;;;16.60;57.70;;;;;;6312480;27;20970;-85
2023/06/01 01:08:15;;;;;;;5.03;3.30;;;16.60;57.80;;;;;;6298581;28;20232;-86
2023/06/01 01:11:23;;;;;;;3.83;3.40;;;16.50;57.70;;;;;;6327995;27;20244;-86
2023/06/01 01:14:32;;;;;;;3.67;3.43;;;16.40;58.30;;;;;;6312643;28;20277;-82
2023/06/01 01:17:42;;;;;;;6.13;3.43;;;16.40;58.40;;;;;;6309965;27;20233;-85
2023/06/01 01:20:57;;;;;;;3.50;3.30;;;16.40;58.50;;;;;;6308458;27;20245;-84
2023/06/01 01:24:16;;;;;;;6.60;3.50;;;16.40;58.60;;;;;;6309973;27;20224;-85
2023/06/01 01:27:31;;;;;;;4.37;3.80;;;16.20;59.00;;;;;;6323173;27;20758;-84
2023/06/01 01:30:41;;;;;;;3.90;3.47;;;16.20;58.70;;;;;;6305994;27;20374;-86
2023/06/01 01:33:46;;;;;;;3.33;3.13;;;16.20;59.00;;;;;;6324130;27;20247;-82
2023/06/01 01:36:49;;;;;;;3.40;3.10;;;16.20;59.20;;;;;;6348529;27;20652;-82
2023/06/01 01:39:53;;;;;;;3.47;3.20;;;16.10;59.80;;;;;;6343451;28;20395;-81
2023/06/01 01:42:57;;;;;;;3.23;3.03;;;16.00;59.70;;;;;;6340431;27;20232;-82
2023/06/01 01:46:08;;;;;;;4.30;3.63;;;16.00;59.80;;;;;;6336163;28;20536;-82
2023/06/01 01:49:18;;;;;;;3.83;3.40;;;15.90;60.10;;;;;;6318927;27;20602;-86
2023/06/01 01:52:27;;;;;;;5.40;3.50;;;15.80;60.30;;;;;;6306224;27;20248;-84
2023/06/01 01:55:32;;;;;;;3.83;3.63;;;15.70;60.70;;;;;;6307226;28;20232;-84
2023/06/01 01:58:35;;;;;;;6.27;3.77;;;15.60;60.80;;;;;;6295136;28;20761;-85
2023/06/01 02:01:44;;;;;;;4.20;3.80;;;15.60;60.90;;;;;;6315216;27;20256;-86
2023/06/01 02:04:48;;;;;;;5.40;3.80;;;15.50;61.10;;;;;;6305753;27;20228;-83
2023/06/01 02:07:51;;;;;;;3.97;3.77;;;15.40;61.40;;;;;;6300754;27;20264;-86
2023/06/01 02:10:54;;;;;;;3.97;3.70;;;15.30;61.70;;;;;;6334659;27;20855;-86
2023/06/01 02:13:58;;;;;;;5.73;3.83;;;15.30;61.70;;;;;;6337291;27;20771;-85
2023/06/01 02:17:02;;;;;;;3.87;3.53;;;15.20;62.00;;;;;;6332387;27;20301;-85
2023/06/01 02:20:06;;;;;;;4.60;3.90;;;15.10;62.20;;;;;;6301957;27;20242;-87
2023/06/01 02:23:14;;;;;;;4.47;4.10;;;15.00;62.40;;;;;;6312911;27;20229;-81
2023/06/01 02:26:18;;;;;;;3.83;3.67;;;14.90;62.90;;;;;;6316833;27;20245;-86
2023/06/01 02:29:22;;;;;;;4.20;3.87;;;14.80;63.00;;;;;;6332673;27;20236;-87
2023/06/01 02:32:30;;;;;;;5.47;4.20;;;14.80;63.00;;;;;;6339400;27;20381;-84
2023/06/01 02:35:33;;;;;;;5.10;3.93;;;14.70;63.20;;;;;;6326028;27;20261;-86
2023/06/01 02:38:37;;;;;;;4.37;4.00;;;14.60;63.50;;;;;;6316461;27;20611;-83
2023/06/01 02:41:40;;;;;;;4.73;4.27;;;14.60;63.90;;;;;;6314476;27;20236;-84
2023/06/01 02:44:43;;;;;;;6.30;4.30;;;14.50;64.00;;;;;;6320933;27;20233;-85
2023/06/01 02:47:48;;;;;;;5.03;4.50;;;14.40;64.20;;;;;;6313875;27;20252;-85
2023/06/01 02:50:52;;;;;;;4.50;4.10;;;14.40;64.50;;;;;;6299979;27;20237;-83
2023/06/01 02:53:55;;;;;;;7.90;4.83;;;14.30;64.70;;;;;;6309802;27;20228;-85
2023/06/01 02:56:58;;;;;;;4.47;4.20;;;14.30;64.90;;;;;;6323390;27;20240;-86
2023/06/01 03:00:01;;;;;;;5.17;4.47;;;14.20;64.80;;;;;;6314798;27;20727;-83
2023/06/01 03:03:06;;;;;;;4.93;4.50;;;14.20;65.10;;;;;;6326384;27;20812;-84
2023/06/01 03:06:10;;;;;;;6.67;4.87;;;14.20;65.20;;;;;;6315108;27;20310;-84
2023/06/01 03:09:13;;;;;;;5.13;4.57;;;14.10;65.40;;;;;;6308607;27;20606;-85
2023/06/01 03:12:17;;;;;;;4.87;4.40;;;14.10;65.40;;;;;;6305421;27;20248;-86
2023/06/01 03:15:20;;;;;;;7.53;5.30;;;14.00;65.60;;;;;;6310857;27;20233;-85
2023/06/01 03:18:25;;;;;;;5.57;4.90;;;14.00;65.80;;;;;;6322000;27;20236;-86
2023/06/01 03:21:28;;;;;;;5.57;5.17;;;13.90;66.10;;;;;;6321186;27;20256;-83
2023/06/01 03:24:34;;;;;;;11.33;5.50;;;13.80;66.70;;;;;;6316063;27;20317;-86
2023/06/01 03:27:37;;;;;;;7.30;5.70;;;13.70;66.80;;;;;;6313718;27;20235;-84
2023/06/01 03:30:42;;;;;;;7.80;6.20;;;13.70;67.10;;;;;;6304326;27;20639;-80
2023/06/01 03:33:46;;;;;;;6.60;6.00;;;13.60;67.60;;;;;;6296065;28;20654;-81
2023/06/01 03:36:49;;;;;;;7.30;6.47;;;13.60;67.70;;;;;;6306845;28;20231;-80
2023/06/01 03:39:53;;;;;;;12.30;6.67;;;13.50;67.90;;;;;;6313884;27;20254;-81
2023/06/01 03:42:56;;;;;;;6.80;6.20;;;13.30;68.40;;;;;;6309711;28;20374;-85
2023/06/01 03:45:59;;;;;;;7.47;6.80;;;13.30;68.70;;;;;;6306444;27;20244;-78
2023/06/01 03:49:05;;;;;;;15.53;7.20;;;13.30;68.90;;;;;;6294497;28;20240;-81
2023/06/01 03:52:08;;;;;;;9.67;7.20;;;13.30;68.80;;;;;;6310645;27;20240;-81
2023/06/01 03:55:13;;;;;;;8.97;6.90;;;13.30;69.00;;;;;;6308423;27;20252;-80
2023/06/01 03:58:18;;;;;;;11.03;7.93;;;13.20;69.00;;;;;;6305897;27;20229;-81
2023/06/01 04:01:22;;;;;;;10.53;7.10;;;13.20;69.00;;;;;;6304474;28;20695;-79
2023/06/01 04:04:29;;;;;;;9.10;7.67;;;13.20;69.30;;;;;;6301333;28;20267;-80
2023/06/01 04:07:34;;;;;;;9.53;7.43;;;13.20;69.20;;;;;;6311505;27;20297;-80
2023/06/01 04:10:37;;;;;;;11.07;7.67;;;13.10;69.40;;;;;;6299528;28;20251;-81
2023/06/01 04:13:41;;;;;;;11.37;8.70;;;13.10;69.40;;;;;;6318876;27;20277;-81
2023/06/01 04:16:45;;;;;;;10.57;7.93;;;13.00;69.90;;;;;;6301814;28;20236;-82
2023/06/01 04:19:50;;;;;;;13.57;8.93;;;13.00;69.80;;;;;;6311631;27;20247;-81
2023/06/01 04:22:57;;;;;;;10.20;8.93;;;13.00;70.00;;;;;;6322373;27;20225;-81
2023/06/01 04:26:02;;;;;;;13.33;8.87;;;13.00;70.00;;;;;;6296532;27;20237;-81
2023/06/01 04:29:05;;;;;;;9.40;8.40;;;13.00;70.00;;;;;;6318983;27;20381;-80
2023/06/01 04:32:08;;;;;;;13.90;8.47;;;13.00;70.10;;;;;;6313265;27;20237;-81
2023/06/01 04:35:13;;;;;;;14.53;9.27;;;13.00;70.00;;;;;;6316518;27;20228;-81
2023/06/01 04:38:16;;;;;;;14.00;9.50;;;13.00;70.20;;;;;;6301213;28;20676;-81
2023/06/01 04:41:20;;;;;;;13.77;11.03;;;13.00;70.50;;;;;;6304874;28;20264;-80
2023/06/01 04:44:23;;;;;;;12.77;10.17;;;13.00;70.20;;;;;;6326305;27;20243;-80
2023/06/01 04:47:28;;;;;;;15.23;10.40;;;13.10;70.00;;;;;;6315766;27;20330;-80
2023/06/01 04:50:32;;;;;;;15.43;10.03;;;13.00;70.10;;;;;;6309236;27;20769;-80
2023/06/01 04:53:35;;;;;;;15.63;10.23;;;13.00;70.20;;;;;;6314256;27;20248;-83
2023/06/01 04:56:38;;;;;;;16.47;10.70;;;12.90;70.00;;;;;;6304310;27;20258;-81
2023/06/01 04:59:42;;;;;;;17.60;11.27;;;12.60;71.10;;;;;;6305875;27;20358;-80
2023/06/01 05:02:47;;;;;;;16.60;10.83;;;12.60;70.90;;;;;;6315763;27;20865;-78
2023/06/01 05:05:52;;;;;;;14.10;11.57;;;12.50;71.30;;;;;;6316939;28;20238;-79
2023/06/01 05:08:58;;;;;;;16.27;11.53;;;12.50;71.70;;;;;;6303710;28;20247;-81
2023/06/01 05:12:01;;;;;;;15.17;10.97;;;12.30;71.90;;;;;;6310960;28;20229;-80
2023/06/01 05:15:07;;;;;;;14.00;10.40;;;12.40;71.80;;;;;;6313849;28;20240;-77
2023/06/01 05:18:10;;;;;;;19.30;11.70;;;12.40;71.90;;;;;;6323857;27;20299;-78
2023/06/01 05:21:15;;;;;;;13.03;11.50;;;12.40;71.80;;;;;;6309731;27;20271;-79
2023/06/01 05:24:18;;;;;;;18.23;11.10;;;12.30;71.70;;;;;;6308788;27;20359;-78
2023/06/01 05:27:21;;;;;;;13.00;11.10;;;12.30;72.00;;;;;;6308396;27;20252;-80
2023/06/01 05:30:24;;;;;;;17.73;11.20;;;12.30;71.90;;;;;;6310763;27;20240;-79
2023/06/01 05:33:27;;;;;;;14.87;11.90;;;12.10;72.40;;;;;;6301021;27;20228;-78
2023/06/01 05:36:34;;;;;;;15.93;11.13;;;12.00;73.00;;;;;;6305852;27;20240;-77
2023/06/01 05:39:37;;;;;;;12.33;10.87;;;11.90;73.00;;;;;;6311011;27;20327;-79
2023/06/01 05:42:40;;;;;;;12.67;10.10;;;11.90;73.30;;;;;;6308844;27;20244;-77
2023/06/01 05:45:43;;;;;;;14.13;10.77;;;12.00;73.20;;;;;;6318647;27;20331;-78
2023/06/01 05:48:47;;;;;;;13.23;10.33;;;12.00;72.70;;;;;;6308888;27;20251;-77
2023/06/01 05:51:51;;;;;;;15.53;10.33;;;12.20;71.80;;;;;;6317915;27;20265;-77
2023/06/01 05:54:55;;;;;;;11.00;9.20;;;12.30;71.40;;;;;;6304009;27;20236;-76
2023/06/01 05:57:59;;;;;;;10.70;9.60;;;12.50;70.90;;;;;;6312943;27;20325;-79
2023/06/01 06:01:02;;;;;;;12.87;9.90;;;12.50;70.50;;;;;;6311798;27;20319;-79
2023/06/01 06:04:07;;;;;;;12.70;10.33;;;12.50;70.20;;;;;;6314227;27;20332;-78
2023/06/01 06:07:12;;;;;;;12.60;9.40;;;12.70;70.10;;;;;;6303387;28;20712;-79
2023/06/01 06:10:15;;;;;;;10.27;9.27;;;12.70;69.30;;;;;;6311696;27;20958;-77
2023/06/01 06:13:18;;;;;;;11.13;8.17;;;12.80;69.50;;;;;;6311530;27;20248;-79
2023/06/01 06:16:21;;;;;;;11.80;8.83;;;12.90;68.20;;;;;;6325174;27;20241;-77
2023/06/01 06:19:25;;;;;;;13.17;8.33;;;12.80;68.10;;;;;;6313819;28;20319;-80
2023/06/01 06:22:29;;;;;;;17.23;9.30;;;12.80;68.20;;;;;;6311923;27;20554;-78
2023/06/01 06:25:33;;;;;;;8.53;7.70;;;12.90;67.70;;;;;;6322730;27;20236;-79
2023/06/01 06:28:36;;;;;;;12.43;8.67;;;13.00;67.50;;;;;;6314290;27;20316;-77
2023/06/01 06:31:40;;;;;;;10.33;7.87;;;12.80;67.60;;;;;;6323587;27;20236;-78
2023/06/01 06:34:43;;;;;;;8.67;7.90;;;12.90;67.30;;;;;;6334659;27;20231;-78
2023/06/01 06:37:48;;;;;;;13.13;8.03;;;13.00;67.70;;;;;;6314323;27;20258;-80
2023/06/01 06:40:52;;;;;;;9.80;7.90;;;13.10;67.00;;;;;;6330222;27;20236;-77
2023/06/01 06:43:55;;;;;;;9.10;7.63;;;13.10;66.50;;;;;;6324218;27;21249;-77
2023/06/01 06:47:00;;;;;;;10.07;7.77;;;13.10;66.50;;;;;;6318250;27;20241;-76
2023/06/01 06:50:07;;;;;;;8.60;7.43;;;13.20;65.60;;;;;;6310990;27;20225;-79
2023/06/01 06:53:11;;;;;;;10.10;8.23;;;13.30;65.50;;;;;;6312919;27;20240;-75
2023/06/01 06:56:14;;;;;;;14.10;8.40;;;13.20;65.50;;;;;;6313343;27;20782;-79
2023/06/01 06:59:18;;;;;;;13.07;8.87;;;13.30;65.60;;;;;;6342073;27;20227;-80
2023/06/01 07:02:22;;;;;;;11.80;8.03;;;13.50;64.50;;;;;;6332508;27;20324;-78
2023/06/01 07:05:25;;;;;;;13.13;7.50;;;13.20;65.40;;;;;;6338575;27;20232;-78
2023/06/01 07:08:34;;;;;;;11.43;7.73;;;13.20;65.40;;;;;;6328316;27;20263;-77
2023/06/01 07:11:37;;;;;;;9.37;7.20;;;13.50;65.00;;;;;;6330544;27;20267;-78
2023/06/01 07:14:42;;;;;;;12.00;7.00;;;13.70;64.20;;;;;;6338953;27;20238;-77
2023/06/01 07:17:45;;;;;;;9.73;7.43;;;14.00;63.90;;;;;;6334379;27;20772;-78
2023/06/01 07:20:48;;;;;;;8.80;7.10;;;14.00;63.40;;;;;;6328711;27;20293;-76
2023/06/01 07:23:53;;;;;;;18.03;7.80;;;13.30;64.60;;;;;;6332854;27;20239;-76
2023/06/01 07:26:57;;;;;;;9.00;7.10;;;13.30;64.50;;;;;;6363596;27;20247;-77
2023/06/01 07:30:00;;;;;;;9.40;7.97;;;13.40;64.60;;;;;;6334888;27;20236;-76
2023/06/01 07:33:04;;;;;;;11.50;8.17;;;13.50;64.60;;;;;;6335099;27;20642;-77
2023/06/01 07:36:08;;;;;;;7.97;7.27;;;13.70;63.70;;;;;;6335664;27;20233;-75
2023/06/01 07:39:12;;;;;;;8.40;6.83;;;13.90;62.90;;;;;;6325513;27;20228;-77
2023/06/01 07:42:15;;;;;;;10.53;7.33;;;14.00;62.70;;;;;;6318774;27;20231;-78
2023/06/01 07:45:19;;;;;;;8.70;7.63;;;14.20;62.40;;;;;;6334994;27;20730;-78
2023/06/01 07:48:22;;;;;;;7.57;6.73;;;14.20;62.30;;;;;;6316477;27;20236;-76
2023/06/01 07:51:25;;;;;;;10.73;7.50;;;14.10;62.50;;;;;;6308039;27;20432;-75
2023/06/01 07:54:30;;;;;;;9.60;6.37;;;14.30;61.90;;;;;;6313025;27;20301;-77
2023/06/01 08:01:56;;;;;;;9.57;6.97;;;14.70;60.70;;;;;;6281959;28;20319;-76
2023/06/01 08:04:59;;;;;;;10.27;7.17;;;14.80;60.80;;;;;;6313899;27;20242;-78
2023/06/01 08:08:02;;;;;;;8.77;7.10;;;14.80;60.90;;;;;;6328295;27;20414;-78
2023/06/01 08:11:08;;;;;;;12.30;9.80;;;14.90;61.00;;;;;;6309485;27;20383;-77
2023/06/01 08:14:11;;;;;;;8.10;7.27;;;14.80;60.90;;;;;;6312713;27;20230;-77
2023/06/01 08:17:14;;;;;;;7.73;6.97;;;14.70;60.50;;;;;;6313341;27;20369;-79
2023/06/01 08:20:21;;;;;;;7.07;6.47;;;14.80;60.30;;;;;;6313697;27;20718;-76
2023/06/01 08:23:24;;;;;;;7.37;6.77;;;14.90;60.40;;;;;;6318547;27;20229;-78
2023/06/01 08:26:29;;;;;;;7.57;6.70;;;14.90;60.20;;;;;;6316386;27;20734;-78
2023/06/01 08:29:32;;;;;;;9.97;6.80;;;15.00;59.50;;;;;;6315784;27;20264;-78
2023/06/01 08:32:45;;;;;;;9.00;6.80;;;15.20;59.50;;;;;;6305226;27;20517;-78
2023/06/01 08:35:48;;;;;;;8.13;7.47;;;15.40;59.60;;;;;;6316448;27;20228;-78
2023/06/01 08:38:56;;;;;;;7.80;7.03;;;15.60;58.80;;;;;;6316023;27;20309;-76
2023/06/01 08:42:08;;;;;;;11.77;7.20;;;15.60;58.60;;;;;;6300164;27;20244;-77
2023/06/01 08:45:14;;;;;;;8.30;7.47;;;15.80;59.00;;;;;;6308782;27;20292;-78
2023/06/01 08:48:19;;;;;;;9.57;6.93;;;16.10;58.30;;;;;;6309715;27;20746;-79
2023/06/01 08:51:27;;;;;;;10.83;6.60;;;16.40;58.30;;;;;;6309180;27;20339;-78
2023/06/01 08:54:31;;;;;;;7.80;6.97;;;16.50;57.60;;;;;;6310891;27;20232;-78
2023/06/01 08:57:36;;;;;;;7.90;7.10;;;16.80;56.80;;;;;;6321605;27;20228;-78
2023/06/01 09:00:40;;;;;;;7.67;6.87;;;17.00;56.40;;;;;;6289300;27;20240;-76
2023/06/01 09:03:43;;;;;;;6.87;6.20;;;17.00;56.60;;;;;;6302914;27;20232;-78
2023/06/01 09:06:47;;;;;;;6.87;6.23;;;16.80;57.20;;;;;;6303873;28;20256;-77
2023/06/01 09:09:51;;;;;;;6.50;5.90;;;17.10;56.40;;;;;;6315836;27;20248;-77
2023/06/01 09:12:56;;;;;;;7.93;5.77;;;17.20;56.20;;;;;;6309827;27;20894;-78
2023/06/01 09:15:59;;;;;;;12.53;6.27;;;17.50;55.60;;;;;;6313100;27;20241;-78
2023/06/01 09:19:03;;;;;;;9.53;6.97;;;17.60;55.30;;;;;;6314731;27;20627;-79
2023/06/01 09:22:06;;;;;;;6.60;5.90;;;17.80;54.80;;;;;;6314592;27;20233;-79
2023/06/01 09:25:12;;;;;;;10.57;7.30;;;18.00;55.50;;;;;;6315219;27;20237;-78
2023/06/01 09:28:17;;;;;;;10.53;6.50;;;18.00;55.50;;;;;;6304099;27;20239;-77
2023/06/01 09:31:36;;;;;;;10.77;5.90;;;17.80;55.40;;;;;;6312958;27;20985;-78
2023/06/01 09:34:45;;;;;;;6.40;5.60;;;17.80;55.70;;;;;;6308975;27;20255;-79
2023/06/01 09:37:56;;;;;;;8.47;6.97;;;18.00;56.00;;;;;;6313988;27;20237;-79
2023/06/01 09:41:01;;;;;;;7.80;6.67;;;18.10;55.00;;;;;;6315195;27;20739;-80
2023/06/01 09:44:06;;;;;;;9.57;6.93;;;18.10;54.60;;;;;;6308163;27;20250;-77
2023/06/01 09:47:12;;;;;;;8.47;6.83;;;18.20;54.50;;;;;;6312582;27;20236;-78
2023/06/01 09:50:34;;;;;;;10.20;6.40;;;18.10;54.80;;;;;;6298867;27;20228;-79
2023/06/01 09:53:42;;;;;;;10.17;6.63;;;18.00;55.30;;;;;;6309663;27;20237;-79
2023/06/01 09:56:45;;;;;;;7.60;6.67;;;17.80;54.80;;;;;;6318137;27;20742;-78
2023/06/01 09:59:49;;;;;;;8.27;6.67;;;17.80;54.50;;;;;;6314717;27;20247;-80
2023/06/01 10:02:54;;;;;;;7.57;6.87;;;18.20;54.50;;;;;;6313466;27;20655;-78
2023/06/01 10:05:58;;;;;;;12.53;7.63;;;18.20;53.60;;;;;;6315692;27;20232;-80
2023/06/01 10:09:02;;;;;;;11.93;7.90;;;18.10;54.10;;;;;;6309957;27;20335;-79
2023/06/01 10:12:07;;;;;;;8.57;7.87;;;18.10;53.70;;;;;;6306579;28;20232;-79
2023/06/01 10:15:12;;;;;;;8.07;7.27;;;18.30;54.00;;;;;;6310463;28;20232;-80
2023/06/01 10:18:33;;;;;;;9.10;8.03;;;18.40;53.90;;;;;;6317972;27;20244;-78
2023/06/01 10:21:39;;;;;;;10.87;8.17;;;18.60;53.80;;;;;;6311247;28;20724;-79
2023/06/01 10:24:44;;;;;;;11.27;8.53;;;18.80;53.20;;;;;;6330479;27;20271;-77
2023/06/01 10:27:58;;;;;;;9.20;8.33;;;19.00;52.80;;;;;;6326922;27;20231;-79
2023/06/01 10:31:43;;;;;;;10.53;8.63;;;19.10;52.90;;;;;;6306469;27;20313;-80
2023/06/01 10:34:48;;;;;;;10.37;9.37;;;19.30;52.60;;;;;;6287939;27;20302;-77
2023/06/01 10:38:22;;;;;;;10.70;9.80;;;19.40;52.00;;;;;;6309303;27;20776;-78
2023/06/01 10:41:30;;;;;;;11.63;10.43;;;19.20;52.00;;;;;;6318358;27;20256;-79
2023/06/01 10:44:47;;;;;;;9.70;8.80;;;18.90;52.80;;;;;;6312520;27;20719;-79
2023/06/01 10:47:50;;;;;;;9.90;9.00;;;19.10;52.80;;;;;;6316259;27;20240;-78
2023/06/01 10:51:19;;;;;;;10.07;9.07;;;19.40;53.00;;;;;;6308044;27;20794;-79
2023/06/01 10:54:31;;;;;;;10.73;9.50;;;19.40;52.70;;;;;;6317801;27;20248;-79
2023/06/01 10:57:35;;;;;;;12.37;10.07;;;19.50;52.90;;;;;;6317006;27;20231;-80
2023/06/01 11:00:40;;;;;;;11.93;10.77;;;19.60;52.70;;;;;;6318966;27;20236;-79
2023/06/01 11:03:45;;;;;;;11.80;10.60;;;19.80;52.50;;;;;;6323001;27;20251;-79
2023/06/01 11:06:50;;;;;;;11.30;9.93;;;19.80;52.90;;;;;;6333432;27;20236;-78
2023/06/01 11:09:54;;;;;;;13.60;10.73;;;19.90;51.90;;;;;;6306512;27;20257;-76
2023/06/01 11:13:12;;;;;;;15.17;10.77;;;20.10;51.30;;;;;;6313969;27;20374;-76
2023/06/01 11:16:31;;;;;;;13.73;11.10;;;20.00;51.30;;;;;;6318079;27;20228;-78
2023/06/01 11:19:35;;;;;;;10.30;9.50;;;20.10;51.80;;;;;;6306446;27;20233;-78
2023/06/01 11:22:40;;;;;;;10.27;9.47;;;20.30;51.40;;;;;;6302370;27;20284;-78
2023/06/01 11:25:44;;;;;;;11.43;10.03;;;20.60;51.50;;;;;;6299659;27;20240;-78
2023/06/01 11:28:49;;;;;;;11.83;9.53;;;20.60;50.50;;;;;;6318874;27;20244;-79
2023/06/01 11:31:55;;;;;;;10.57;9.77;;;20.40;50.90;;;;;;6310922;27;20240;-80
2023/06/01 11:34:59;;;;;;;10.93;9.97;;;20.40;50.30;;;;;;6311014;27;20333;-80
2023/06/01 11:38:03;;;;;;;10.43;9.37;;;20.50;50.20;;;;;;6310903;28;20252;-79
2023/06/01 11:41:08;;;;;;;10.20;9.40;;;20.50;50.70;;;;;;6302669;27;20241;-78
2023/06/01 11:44:12;;;;;;;12.10;9.03;;;20.60;50.70;;;;;;6312050;27;20235;-83
2023/06/01 11:47:15;;;;;;;10.07;9.17;;;20.60;50.40;;;;;;6307158;27;20349;-79
2023/06/01 11:50:26;;;;;;;9.90;8.70;;;20.70;51.10;;;;;;6303045;28;20243;-79
2023/06/01 11:53:33;;;;;;;10.40;9.57;;;20.90;50.40;;;;;;6308665;27;20327;-79
2023/06/01 11:56:39;;;;;;;10.77;9.80;;;21.10;50.50;;;;;;6308015;27;20233;-80
2023/06/01 11:59:44;;;;;;;10.40;9.30;;;21.30;49.50;;;;;;6306700;27;20319;-79
2023/06/01 12:02:48;;;;;;;10.37;9.30;;;21.20;50.00;;;;;;6308102;27;20252;-78
2023/06/01 12:05:52;;;;;;;9.17;8.27;;;21.10;49.70;;;;;;6319157;27;20263;-79
2023/06/01 12:08:57;;;;;;;9.37;8.47;;;21.10;50.40;;;;;;6305508;27;20327;-77
2023/06/01 12:12:00;;;;;;;9.83;8.47;;;21.30;49.60;;;;;;6308275;28;20366;-77
2023/06/01 12:15:04;;;;;;;11.83;8.67;;;21.10;50.10;;;;;;6314516;27;20470;-78
2023/06/01 12:18:08;;;;;;;9.03;8.20;;;21.10;49.70;;;;;;6320604;27;20237;-79
2023/06/01 12:21:13;;;;;;;10.27;8.60;;;21.20;49.90;;;;;;6325615;27;20236;-79
2023/06/01 12:24:18;;;;;;;9.47;8.67;;;21.50;49.70;;;;;;6310561;27;20239;-80
2023/06/01 12:27:21;;;;;;;9.00;8.20;;;21.50;49.20;;;;;;6306207;27;20314;-80
2023/06/01 12:30:25;;;;;;;9.13;8.10;;;21.50;48.80;;;;;;6313227;27;20759;-80
2023/06/01 12:33:33;;;;;;;9.00;8.13;;;21.40;49.20;;;;;;6308113;27;20976;-77
2023/06/01 12:36:37;;;;;;;8.07;7.37;;;21.40;49.00;;;;;;6311207;27;20313;-79
2023/06/01 12:39:42;;;;;;;12.93;7.63;;;21.30;49.50;;;;;;6309241;27;20250;-79
2023/06/01 12:42:45;;;;;;;9.53;8.07;;;21.40;49.00;;;;;;6314631;27;20229;-80
2023/06/01 12:45:48;;;;;;;8.80;8.00;;;21.40;49.30;;;;;;6306606;28;20294;-77
2023/06/01 12:48:53;;;;;;;10.47;7.87;;;21.50;48.60;;;;;;6307848;27;20564;-78
2023/06/01 12:51:57;;;;;;;9.30;8.33;;;21.50;48.60;;;;;;6308265;28;20236;-78
2023/06/01 12:55:03;;;;;;;7.17;6.67;;;21.50;48.50;;;;;;6300619;28;20240;-78
2023/06/01 12:58:06;;;;;;;8.07;6.90;;;21.70;48.30;;;;;;6323438;27;20927;-80
2023/06/01 13:01:09;;;;;;;7.60;6.90;;;21.90;48.10;;;;;;6310982;28;20294;-79
2023/06/01 13:04:12;;;;;;;10.00;8.07;;;21.90;47.50;;;;;;6316756;27;20278;-76
2023/06/01 13:07:16;;;;;;;8.93;6.80;;;21.90;47.80;;;;;;6309608;28;20791;-77
2023/06/01 13:10:20;;;;;;;8.70;7.80;;;21.90;47.60;;;;;;6307556;27;20245;-79
2023/06/01 13:13:23;;;;;;;8.87;7.33;;;21.90;47.90;;;;;;6312672;27;20301;-78
2023/06/01 13:16:27;;;;;;;13.23;7.00;;;21.90;47.60;;;;;;6305601;28;20251;-77
2023/06/01 13:19:30;;;;;;;10.47;7.57;;;21.90;48.10;;;;;;6332835;27;20240;-81
2023/06/01 13:22:33;;;;;;;7.50;6.80;;;21.90;47.60;;;;;;6314966;27;20279;-77
2023/06/01 13:25:38;;;;;;;7.60;6.53;;;21.90;47.70;;;;;;6309481;28;20248;-76
2023/06/01 13:28:42;;;;;;;7.73;6.63;;;21.90;47.90;;;;;;6310983;27;20224;-80
2023/06/01 13:31:45;;;;;;;9.53;6.93;;;21.90;47.60;;;;;;6325022;27;20836;-78
2023/06/01 13:34:48;;;;;;;6.40;5.83;;;22.00;47.80;;;;;;6319864;27;20242;-80
2023/06/01 13:37:51;;;;;;;7.23;6.53;;;22.30;47.50;;;;;;6312869;27;20232;-81
2023/06/01 13:40:56;;;;;;;7.30;6.70;;;22.50;47.00;;;;;;6311323;27;20315;-80
2023/06/01 13:43:59;;;;;;;7.50;6.87;;;22.30;46.70;;;;;;6298019;27;20233;-76
2023/06/01 13:47:03;;;;;;;8.53;7.10;;;22.50;47.20;;;;;;6309363;27;20268;-80
2023/06/01 13:50:07;;;;;;;7.90;6.93;;;22.50;46.00;;;;;;6311738;27;20272;-79
2023/06/01 13:53:10;;;;;;;6.70;6.03;;;22.30;46.50;;;;;;6315189;27;20252;-79
2023/06/01 13:56:15;;;;;;;11.23;6.60;;;22.30;46.50;;;;;;6314145;27;20289;-79
2023/06/01 13:59:18;;;;;;;6.67;6.17;;;22.50;46.70;;;;;;6300931;27;20663;-81
2023/06/01 14:02:22;;;;;;;10.87;7.20;;;22.50;46.90;;;;;;6306785;28;20319;-78
2023/06/01 14:05:25;;;;;;;9.50;6.77;;;22.30;47.50;;;;;;6313658;27;20767;-81
2023/06/01 14:08:49;;;;;;;7.90;6.50;;;22.50;47.00;;;;;;6307146;28;20234;-80
2023/06/01 14:11:54;;;;;;;10.73;6.47;;;22.50;46.70;;;;;;6309604;27;20331;-78
2023/06/01 14:14:57;;;;;;;7.37;6.77;;;22.60;47.10;;;;;;6309437;27;20244;-78
2023/06/01 14:18:00;;;;;;;6.70;6.10;;;22.60;46.70;;;;;;6313247;27;20797;-78
2023/06/01 14:21:03;;;;;;;8.67;6.47;;;22.60;46.50;;;;;;6315972;27;20265;-79
2023/06/01 14:24:07;;;;;;;11.37;6.77;;;22.60;46.80;;;;;;6310539;27;20727;-79
2023/06/01 14:27:11;;;;;;;9.10;6.57;;;22.60;46.80;;;;;;6313920;28;20265;-80
2023/06/01 14:30:14;;;;;;;7.23;6.50;;;22.60;46.90;;;;;;6324443;27;20237;-79
2023/06/01 14:33:18;;;;;;;7.63;6.40;;;22.60;46.90;;;;;;6300644;27;20778;-80
2023/06/01 14:36:21;;;;;;;6.30;5.77;;;22.60;46.70;;;;;;6313468;28;20232;-79
2023/06/01 14:39:37;;;;;;;9.17;6.37;;;22.50;46.60;;;;;;6312258;27;20225;-77
2023/06/01 14:42:42;;;;;;;6.67;6.07;;;22.60;46.50;;;;;;6308938;27;20639;-80
2023/06/01 14:45:45;;;;;;;6.60;6.10;;;22.70;46.60;;;;;;6313630;28;20655;-77
2023/06/01 14:48:48;;;;;;;11.37;7.03;;;22.50;46.70;;;;;;6313635;27;20251;-78
2023/06/01 14:51:51;;;;;;;8.73;6.10;;;22.50;46.30;;;;;;6321017;27;20374;-79
2023/06/01 14:54:54;;;;;;;7.40;6.60;;;22.40;46.40;;;;;;6311538;28;20228;-78
2023/06/01 14:57:59;;;;;;;7.43;6.30;;;22.30;46.80;;;;;;6325471;27;20225;-77
2023/06/01 15:01:02;;;;;;;9.80;5.83;;;22.50;46.70;;;;;;6317164;27;20237;-78
2023/06/01 15:04:06;;;;;;;6.70;6.07;;;22.50;47.00;;;;;;6319944;27;20373;-74
2023/06/01 15:07:09;;;;;;;7.50;5.70;;;22.30;46.70;;;;;;6321855;27;20348;-78
2023/06/01 15:10:12;;;;;;;6.30;5.77;;;22.30;46.80;;;;;;6327920;27;20233;-78
2023/06/01 15:13:16;;;;;;;7.50;6.17;;;22.40;46.90;;;;;;6313582;27;20252;-78
2023/06/01 15:16:19;;;;;;;8.17;6.10;;;22.50;46.30;;;;;;6312737;27;20250;-77
2023/06/01 15:19:23;;;;;;;7.20;6.23;;;22.50;46.00;;;;;;6311943;27;20285;-79
2023/06/01 15:22:26;;;;;;;7.87;5.93;;;22.60;46.20;;;;;;6312863;27;20362;-77
2023/06/01 15:25:29;;;;;;;7.97;5.97;;;22.70;46.00;;;;;;6305279;27;20229;-78
2023/06/01 15:28:34;;;;;;;6.77;6.20;;;22.60;46.20;;;;;;6308006;28;20244;-79
2023/06/01 15:31:37;;;;;;;6.03;5.47;;;22.50;46.30;;;;;;6306035;27;20289;-78
2023/06/01 15:34:41;;;;;;;7.87;6.13;;;22.60;46.50;;;;;;6313045;27;20680;-78
2023/06/01 15:37:45;;;;;;;8.93;5.93;;;22.50;46.50;;;;;;6300737;28;20224;-77
2023/06/01 15:40:48;;;;;;;9.83;6.37;;;22.50;47.30;;;;;;6307104;28;20259;-76
2023/06/01 15:43:52;;;;;;;7.57;6.53;;;22.60;46.90;;;;;;6300119;28;20229;-78
2023/06/01 15:46:55;;;;;;;7.83;5.70;;;22.50;46.80;;;;;;6306674;28;20251;-81
2023/06/01 15:49:59;;;;;;;6.43;5.50;;;22.60;46.90;;;;;;6303985;28;20260;-80
2023/06/01 15:53:02;;;;;;;6.97;6.00;;;22.60;46.70;;;;;;6307302;27;20744;-80
2023/06/01 15:56:06;;;;;;;7.63;5.10;;;22.70;46.10;;;;;;6307681;27;20301;-80
2023/06/01 15:59:11;;;;;;;10.90;5.57;;;22.60;45.70;;;;;;6309459;27;20225;-80
2023/06/01 16:02:14;;;;;;;5.57;5.00;;;22.50;45.90;;;;;;6313901;27;20266;-80